Deepwater, New Jersey
Current Conditions -  °F | °C
As of 11:51 PM on Wednesday 26 Nov 2014 (Local Time) from KILG Reporting Station
Overcast Overcast  
Wind Chill: 30°   Ceiling: 8000
Heat Index: 37°   Visibility: 10mi
Dew Point: 33°   Wind: 10mph
Humidity: 86%   Direction: 290°WNW
Pressure: 29.95"   Gusts: NA
Location:  39.68°N, 75.49°W
Report Text: KILG 270451Z 29009KT 10SM OVC080 03/01 A2995 RMK AO2 SLP141 T00280006 400890011
Loading
Personal Weather Stations






























Interactive Weather Map New forecast layout! Learn more

10-Day Weather Forecast

Advertisements
Track Severe Weather on mobile